Time;durP1;ratioP1;P1;durP2;ratioP2;P2;SDS_P1;SDS_P2;PMS_P1;PMS_P2;Temp;Humidity;BMP_temperature;BMP_pressure;BME280_temperature;BME280_humidity;BME280_pressure;Samples;Min_cycle;Max_cycle;Signal;HPM_P1;HPM_P2
2022/01/09 00:00:48;;;;;;;;;;;4.70;99.90;;;;;;4886193;29;20108;-83
2022/01/09 00:03:16;;;;;;;;;;;4.90;99.90;;;;;;4886953;29;20426;-81
2022/01/09 00:05:44;;;;;;;;;;;4.90;99.90;;;;;;4887832;29;20289;-80
2022/01/09 00:08:12;;;;;;;;;;;6.20;99.90;;;;;;4870172;29;20286;-80
2022/01/09 00:10:46;;;;;;;;;;;4.90;99.90;;;;;;4903957;29;19932;-81
2022/01/09 00:13:14;;;;;;;;;;;4.70;99.90;;;;;;4889644;29;19942;-80
2022/01/09 00:15:44;;;;;;;;;;;4.70;99.90;;;;;;4904129;29;20485;-79
2022/01/09 00:18:12;;;;;;;;;;;4.70;99.90;;;;;;4904854;29;19935;-81
2022/01/09 00:20:42;;;;;;;;;;;4.20;99.90;;;;;;4889683;29;19931;-79
2022/01/09 00:23:10;;;;;;;;;;;4.70;99.90;;;;;;4889790;29;19935;-84
2022/01/09 00:25:39;;;;;;;;;;;4.60;99.90;;;;;;4888190;29;19928;-81
2022/01/09 00:28:08;;;;;;;;;;;4.60;99.90;;;;;;4903288;29;19938;-82
2022/01/09 00:30:40;;;;;;;;;;;4.60;99.90;;;;;;4888529;29;19935;-85
2022/01/09 00:33:12;;;;;;;;;;;4.60;99.90;;;;;;4902037;29;19935;-82
2022/01/09 00:35:41;;;;;;;;;;;4.60;99.90;;;;;;4888528;29;19936;-80
2022/01/09 00:38:18;;;;;;;;;;;4.50;99.90;;;;;;4885856;29;19935;-80
2022/01/09 00:40:48;;;;;;;;;;;4.50;99.90;;;;;;4874395;29;19936;-83
2022/01/09 00:43:16;;;;;;;;;;;4.50;99.90;;;;;;4874556;29;19937;-80
2022/01/09 00:45:45;;;;;;;;;;;4.50;99.90;;;;;;4858314;29;19938;-79
2022/01/09 00:48:14;;;;;;;;;;;4.50;99.90;;;;;;4888610;29;19943;-81
2022/01/09 00:50:43;;;;;;;;;;;4.40;99.90;;;;;;4875847;29;19934;-80
2022/01/09 00:53:11;;;;;;;;;;;4.50;99.90;;;;;;4890473;29;19939;-82
2022/01/09 00:55:39;;;;;;;;;;;4.40;99.90;;;;;;4881262;29;19934;-81
2022/01/09 00:58:08;;;;;;;;;;;4.40;99.90;;;;;;4872898;29;19928;-80
2022/01/09 01:00:39;;;;;;;;;;;4.40;99.90;;;;;;4888939;29;19928;-83
2022/01/09 01:03:07;;;;;;;;;;;4.40;99.90;;;;;;4883452;29;19942;-85
2022/01/09 01:05:35;;;;;;;;;;;4.40;99.90;;;;;;4909249;29;19953;-81
2022/01/09 01:08:05;;;;;;;;;;;4.40;99.90;;;;;;4889545;29;19951;-83
2022/01/09 01:10:33;;;;;;;;;;;4.40;99.90;;;;;;4889549;29;20170;-80
2022/01/09 01:13:00;;;;;;;;;;;4.40;99.90;;;;;;4893062;29;19927;-82
2022/01/09 01:15:30;;;;;;;;;;;4.40;99.90;;;;;;4907669;29;19928;-81
2022/01/09 01:18:04;;;;;;;;;;;4.40;99.90;;;;;;4904469;29;19935;-81
2022/01/09 01:20:32;;;;;;;;;;;4.30;99.90;;;;;;4875154;29;19931;-83
2022/01/09 01:23:00;;;;;;;;;;;4.40;99.90;;;;;;4890383;29;19928;-79
2022/01/09 01:25:29;;;;;;;;;;;4.50;99.90;;;;;;4893304;29;19928;-80
2022/01/09 01:27:57;;;;;;;;;;;4.50;99.90;;;;;;4887234;29;20297;-81
2022/01/09 01:30:25;;;;;;;;;;;4.30;99.90;;;;;;4899425;29;19928;-79
2022/01/09 01:32:53;;;;;;;;;;;4.30;99.90;;;;;;4885905;29;19938;-82
2022/01/09 01:35:21;;;;;;;;;;;4.30;99.90;;;;;;4897321;29;19928;-80
2022/01/09 01:37:49;;;;;;;;;;;4.30;99.90;;;;;;4890752;29;19928;-80
2022/01/09 01:40:18;;;;;;;;;;;4.30;99.90;;;;;;4888324;29;19931;-80
2022/01/09 01:42:46;;;;;;;;;;;4.20;99.90;;;;;;4889460;29;19928;-80
2022/01/09 01:45:14;;;;;;;;;;;4.20;99.90;;;;;;4906413;29;19928;-81
2022/01/09 01:47:42;;;;;;;;;;;4.40;99.90;;;;;;4903310;29;19932;-79
2022/01/09 01:50:12;;;;;;;;;;;4.20;99.90;;;;;;4902980;29;19935;-80
2022/01/09 01:52:45;;;;;;;;;;;4.20;99.90;;;;;;4907507;29;19962;-83
2022/01/09 01:55:15;;;;;;;;;;;4.20;99.90;;;;;;4906680;29;19935;-81
2022/01/09 01:57:44;;;;;;;;;;;4.20;99.90;;;;;;4874460;29;20808;-82
2022/01/09 02:00:14;;;;;;;;;;;4.20;99.90;;;;;;4892421;29;19933;-83
2022/01/09 02:02:45;;;;;;;;;;;4.20;99.90;;;;;;4907113;29;19942;-81
2022/01/09 02:05:12;;;;;;;;;;;4.20;99.90;;;;;;4887030;29;19938;-83
2022/01/09 02:07:41;;;;;;;;;;;4.10;99.90;;;;;;4888827;29;19938;-83
2022/01/09 02:10:10;;;;;;;;;;;4.20;99.90;;;;;;4561855;29;10000376;-82
2022/01/09 02:12:40;;;;;;;;;;;4.20;99.90;;;;;;4906139;29;20468;-81
2022/01/09 02:15:27;;;;;;;;;;;4.10;99.90;;;;;;4889186;29;19927;-82
2022/01/09 02:17:56;;;;;;;;;;;4.10;99.90;;;;;;4886857;29;19938;-83
2022/01/09 02:20:24;;;;;;;;;;;4.10;99.90;;;;;;4889083;29;19932;-85
2022/01/09 02:22:56;;;;;;;;;;;4.10;99.90;;;;;;4906008;29;19931;-83
2022/01/09 02:25:26;;;;;;;;;;;4.10;99.90;;;;;;4890122;29;19927;-84
2022/01/09 02:27:54;;;;;;;;;;;4.10;99.90;;;;;;4889583;29;19927;-81
2022/01/09 02:30:22;;;;;;;;;;;4.10;99.90;;;;;;4907155;29;19927;-82
2022/01/09 02:32:50;;;;;;;;;;;4.10;99.90;;;;;;4875453;29;19934;-82
2022/01/09 02:35:23;;;;;;;;;;;4.10;99.90;;;;;;4889476;29;19931;-82
2022/01/09 02:37:51;;;;;;;;;;;4.10;99.90;;;;;;4890965;29;19927;-79
2022/01/09 02:40:22;;;;;;;;;;;4.20;99.90;;;;;;4874042;29;19934;-80
2022/01/09 02:42:52;;;;;;;;;;;4.10;99.90;;;;;;4872196;29;19932;-80
2022/01/09 02:45:23;;;;;;;;;;;4.10;99.90;;;;;;4872494;29;19942;-80
2022/01/09 02:47:52;;;;;;;;;;;4.10;99.90;;;;;;4889803;29;19928;-80
2022/01/09 02:52:56;;;;;;;;;;;4.10;99.90;;;;;;4876223;29;20009;-79
2022/01/09 02:55:25;;;;;;;;;;;3.20;99.90;;;;;;4908791;29;20103;-80
2022/01/09 02:57:57;;;;;;;;;;;4.10;99.90;;;;;;4894294;29;19943;-81
2022/01/09 03:00:28;;;;;;;;;;;4.00;99.90;;;;;;4912830;29;19935;-82
2022/01/09 03:02:59;;;;;;;;;;;4.00;99.90;;;;;;4895454;29;19938;-80
2022/01/09 03:05:29;;;;;;;;;;;4.00;99.90;;;;;;4912461;29;19942;-83
2022/01/09 03:07:59;;;;;;;;;;;4.20;99.90;;;;;;4894691;29;19938;-80
2022/01/09 03:10:27;;;;;;;;;;;4.00;99.90;;;;;;4912276;29;19943;-81
2022/01/09 03:12:58;;;;;;;;;;;4.00;99.90;;;;;;4882178;29;19931;-80
2022/01/09 03:15:27;;;;;;;;;;;4.00;99.90;;;;;;4895382;29;19938;-81
2022/01/09 03:17:56;;;;;;;;;;;4.00;99.90;;;;;;4877781;29;19932;-83
2022/01/09 03:20:27;;;;;;;;;;;3.90;99.90;;;;;;4911579;29;19943;-81
2022/01/09 03:22:55;;;;;;;;;;;4.00;99.90;;;;;;4911290;29;19932;-85
2022/01/09 03:25:24;;;;;;;;;;;3.90;99.90;;;;;;4894892;29;19939;-84
2022/01/09 03:27:54;;;;;;;;;;;3.90;99.90;;;;;;4879267;29;19934;-83
2022/01/09 03:30:23;;;;;;;;;;;3.90;99.90;;;;;;4894402;29;19931;-84
2022/01/09 03:32:51;;;;;;;;;;;4.00;99.90;;;;;;4898102;29;19954;-82
2022/01/09 03:35:21;;;;;;;;;;;4.00;99.90;;;;;;4889811;29;20305;-81
2022/01/09 03:37:49;;;;;;;;;;;4.00;99.90;;;;;;4894780;29;19941;-82
2022/01/09 03:40:20;;;;;;;;;;;4.00;99.90;;;;;;4887758;29;19932;-84
2022/01/09 03:42:48;;;;;;;;;;;4.00;99.90;;;;;;4895116;29;19932;-82
2022/01/09 03:45:16;;;;;;;;;;;4.00;99.90;;;;;;4910677;29;19935;-85
2022/01/09 03:47:45;;;;;;;;;;;4.00;99.90;;;;;;4894762;29;19927;-83
2022/01/09 03:50:13;;;;;;;;;;;4.00;99.90;;;;;;4902402;29;19932;-81
2022/01/09 03:52:41;;;;;;;;;;;4.00;99.90;;;;;;4877298;29;19934;-82
2022/01/09 03:55:12;;;;;;;;;;;4.00;99.90;;;;;;4892574;29;19935;-80
2022/01/09 03:57:41;;;;;;;;;;;4.00;99.90;;;;;;4895270;29;19938;-80
2022/01/09 04:00:11;;;;;;;;;;;4.00;99.90;;;;;;4891340;29;19927;-81
2022/01/09 04:02:40;;;;;;;;;;;4.00;99.90;;;;;;4892056;29;19928;-80
2022/01/09 04:05:09;;;;;;;;;;;3.90;99.90;;;;;;4903420;29;19938;-83
2022/01/09 04:07:37;;;;;;;;;;;3.90;99.90;;;;;;4894582;29;19927;-82
2022/01/09 04:10:06;;;;;;;;;;;3.90;99.90;;;;;;4893283;29;19931;-81
2022/01/09 04:12:46;;;;;;;;;;;3.90;99.90;;;;;;4895164;29;19927;-80
2022/01/09 04:15:15;;;;;;;;;;;4.80;99.90;;;;;;4864851;29;19927;-80
2022/01/09 04:20:12;;;;;;;;;;;3.90;99.90;;;;;;4909603;29;19927;-80
2022/01/09 04:22:40;;;;;;;;;;;3.90;99.90;;;;;;4894193;29;20381;-84
2022/01/09 04:25:08;;;;;;;;;;;3.90;99.90;;;;;;4894255;29;19931;-82
2022/01/09 04:27:37;;;;;;;;;;;3.90;99.90;;;;;;4893621;29;19934;-86
2022/01/09 04:30:06;;;;;;;;;;;3.90;99.90;;;;;;4889131;29;19935;-81
2022/01/09 04:32:35;;;;;;;;;;;3.90;99.90;;;;;;4860197;29;19928;-81
2022/01/09 04:35:03;;;;;;;;;;;4.00;99.90;;;;;;4886803;29;19938;-80
2022/01/09 04:37:34;;;;;;;;;;;3.90;99.90;;;;;;4884037;29;19928;-80
2022/01/09 04:40:02;;;;;;;;;;;3.90;99.90;;;;;;4877289;29;19927;-80
2022/01/09 04:42:39;;;;;;;;;;;3.90;99.90;;;;;;4911018;29;19928;-81
2022/01/09 04:45:10;;;;;;;;;;;3.90;99.90;;;;;;4878341;29;19927;-84
2022/01/09 04:47:41;;;;;;;;;;;3.90;99.90;;;;;;4878346;29;19931;-80
2022/01/09 04:50:13;;;;;;;;;;;3.70;99.90;;;;;;4908958;29;19934;-81
2022/01/09 04:52:45;;;;;;;;;;;3.80;99.90;;;;;;4909483;29;19928;-84
2022/01/09 04:55:14;;;;;;;;;;;3.80;99.90;;;;;;4893653;29;19927;-80
2022/01/09 04:57:43;;;;;;;;;;;3.80;99.90;;;;;;4909779;29;19928;-80
2022/01/09 05:00:12;;;;;;;;;;;3.80;99.90;;;;;;4893549;29;19933;-81
2022/01/09 05:02:41;;;;;;;;;;;3.80;99.90;;;;;;4895593;29;19923;-81
2022/01/09 05:05:09;;;;;;;;;;;3.80;99.90;;;;;;4909603;29;19928;-81
2022/01/09 05:07:38;;;;;;;;;;;3.80;99.90;;;;;;4878548;29;19931;-83
2022/01/09 05:10:09;;;;;;;;;;;3.80;99.90;;;;;;4879031;29;19938;-83
2022/01/09 05:12:37;;;;;;;;;;;3.80;99.90;;;;;;4875149;29;19927;-81
2022/01/09 05:15:07;;;;;;;;;;;3.80;99.90;;;;;;4859268;29;19928;-80
2022/01/09 05:17:36;;;;;;;;;;;3.80;99.90;;;;;;4860303;29;20442;-81
2022/01/09 05:20:05;;;;;;;;;;;3.80;99.90;;;;;;4905039;29;19935;-80
2022/01/09 05:22:33;;;;;;;;;;;3.80;99.90;;;;;;4887196;29;19931;-81
2022/01/09 05:25:03;;;;;;;;;;;3.80;99.90;;;;;;4910403;29;19928;-84
2022/01/09 05:27:34;;;;;;;;;;;3.80;99.90;;;;;;4892233;29;19927;-79
2022/01/09 05:30:03;;;;;;;;;;;3.80;99.90;;;;;;4876303;29;19938;-82
2022/01/09 05:32:32;;;;;;;;;;;3.70;99.90;;;;;;4909503;29;20275;-81
2022/01/09 05:35:00;;;;;;;;;;;3.80;99.90;;;;;;4892832;29;19927;-80
2022/01/09 05:37:28;;;;;;;;;;;3.80;99.90;;;;;;4873863;29;20386;-80
2022/01/09 05:39:56;;;;;;;;;;;3.80;99.90;;;;;;4897010;29;19936;-79
2022/01/09 05:42:24;;;;;;;;;;;4.00;99.90;;;;;;4874108;29;19928;-81
2022/01/09 05:44:54;;;;;;;;;;;2.70;99.90;;;;;;4891922;29;19927;-80
2022/01/09 05:47:22;;;;;;;;;;;3.70;99.90;;;;;;4891079;29;19932;-81
2022/01/09 05:49:51;;;;;;;;;;;3.70;99.90;;;;;;4869445;29;19928;-81
2022/01/09 05:52:19;;;;;;;;;;;3.80;99.90;;;;;;4872541;29;19928;-81
2022/01/09 05:54:48;;;;;;;;;;;3.70;99.90;;;;;;4890057;29;19939;-85
2022/01/09 05:57:16;;;;;;;;;;;3.70;99.90;;;;;;4887190;29;19927;-83
2022/01/09 05:59:46;;;;;;;;;;;3.70;99.90;;;;;;4870393;29;20645;-82
2022/01/09 06:02:15;;;;;;;;;;;3.70;99.90;;;;;;4874756;29;19935;-81
2022/01/09 06:04:45;;;;;;;;;;;3.70;99.90;;;;;;4890162;29;19934;-80
2022/01/09 06:07:13;;;;;;;;;;;3.80;99.90;;;;;;4903354;29;19927;-82
2022/01/09 06:09:44;;;;;;;;;;;3.80;99.90;;;;;;4906368;29;19931;-83
2022/01/09 06:12:11;;;;;;;;;;;4.00;99.90;;;;;;4885688;29;19935;-80
2022/01/09 06:14:41;;;;;;;;;;;3.80;99.90;;;;;;4888662;29;20002;-82
2022/01/09 06:17:10;;;;;;;;;;;3.80;99.90;;;;;;4887206;29;19928;-84
2022/01/09 06:19:39;;;;;;;;;;;3.90;99.90;;;;;;4876977;29;19962;-83
2022/01/09 06:22:07;;;;;;;;;;;3.90;99.90;;;;;;4889502;29;19931;-82
2022/01/09 06:24:35;;;;;;;;;;;3.90;99.90;;;;;;4875290;29;19927;-83
2022/01/09 06:27:03;;;;;;;;;;;3.90;99.90;;;;;;4877470;29;19931;-80
2022/01/09 06:29:31;;;;;;;;;;;3.90;99.90;;;;;;4876078;29;19935;-82
2022/01/09 06:32:02;;;;;;;;;;;4.00;99.90;;;;;;4893149;29;19942;-83
2022/01/09 06:34:32;;;;;;;;;;;3.90;99.90;;;;;;4876010;29;19939;-81
2022/01/09 06:37:00;;;;;;;;;;;3.80;99.90;;;;;;4871450;29;20190;-83
2022/01/09 06:39:28;;;;;;;;;;;3.80;99.90;;;;;;4865399;29;19932;-80
2022/01/09 06:41:56;;;;;;;;;;;3.90;99.90;;;;;;4912348;29;19942;-80
2022/01/09 06:44:27;;;;;;;;;;;3.90;99.90;;;;;;4894635;29;19935;-80
2022/01/09 06:47:04;;;;;;;;;;;3.90;99.90;;;;;;4909331;29;19928;-81
2022/01/09 06:49:31;;;;;;;;;;;3.90;99.90;;;;;;4886583;29;19931;-86
2022/01/09 06:51:59;;;;;;;;;;;3.90;99.90;;;;;;4878341;29;19927;-82
2022/01/09 06:54:29;;;;;;;;;;;3.80;99.90;;;;;;4875405;29;19934;-84
2022/01/09 06:56:57;;;;;;;;;;;3.80;99.90;;;;;;4873223;29;19931;-84
2022/01/09 06:59:24;;;;;;;;;;;3.80;99.90;;;;;;4910330;29;19927;-80
2022/01/09 07:01:52;;;;;;;;;;;3.80;99.90;;;;;;4908965;29;19931;-82
2022/01/09 07:04:21;;;;;;;;;;;4.90;99.90;;;;;;4896556;29;19932;-80
2022/01/09 07:06:49;;;;;;;;;;;3.80;99.90;;;;;;4552384;29;9999599;-82
2022/01/09 07:09:17;;;;;;;;;;;3.80;99.90;;;;;;4885091;29;20031;-79
2022/01/09 07:11:44;;;;;;;;;;;3.80;99.90;;;;;;4910120;29;19997;-81
2022/01/09 07:14:14;;;;;;;;;;;4.60;99.90;;;;;;4910641;29;19927;-80
2022/01/09 07:16:41;;;;;;;;;;;3.80;99.90;;;;;;4911259;29;19928;-81
2022/01/09 07:19:09;;;;;;;;;;;3.80;99.90;;;;;;4893416;29;19938;-80
2022/01/09 07:21:37;;;;;;;;;;;3.80;99.90;;;;;;4877548;29;19935;-81
2022/01/09 07:24:05;;;;;;;;;;;3.80;99.90;;;;;;4875091;29;19935;-80
2022/01/09 07:26:33;;;;;;;;;;;3.80;99.90;;;;;;4884581;29;19931;-80
2022/01/09 07:29:02;;;;;;;;;;;3.80;99.90;;;;;;4893490;29;19936;-82
2022/01/09 07:31:30;;;;;;;;;;;3.90;99.90;;;;;;4876854;29;19938;-82
2022/01/09 07:33:58;;;;;;;;;;;3.80;99.90;;;;;;4863074;29;19935;-80
2022/01/09 07:36:26;;;;;;;;;;;3.80;99.90;;;;;;4890857;29;19941;-79
2022/01/09 07:38:54;;;;;;;;;;;4.00;99.90;;;;;;4906397;29;19927;-83
2022/01/09 07:41:24;;;;;;;;;;;3.80;99.90;;;;;;4880308;29;19942;-81
2022/01/09 07:43:52;;;;;;;;;;;3.80;99.90;;;;;;4877580;29;19931;-82
2022/01/09 07:46:19;;;;;;;;;;;3.80;99.90;;;;;;4909992;29;19927;-83
2022/01/09 07:48:48;;;;;;;;;;;3.70;99.90;;;;;;4871842;29;19936;-80
2022/01/09 07:51:16;;;;;;;;;;;3.80;99.90;;;;;;4877216;29;19935;-83
2022/01/09 07:53:44;;;;;;;;;;;3.80;99.90;;;;;;4891400;29;19928;-83
2022/01/09 07:56:12;;;;;;;;;;;3.80;99.90;;;;;;4893145;29;20801;-80
2022/01/09 07:58:40;;;;;;;;;;;3.60;99.90;;;;;;4892438;29;20467;-82
2022/01/09 08:01:07;;;;;;;;;;;3.70;99.90;;;;;;4905922;29;19942;-80
2022/01/09 08:03:35;;;;;;;;;;;3.70;99.90;;;;;;4874143;29;19935;-81
2022/01/09 08:06:04;;;;;;;;;;;3.70;99.90;;;;;;4908564;29;19932;-83
2022/01/09 08:08:32;;;;;;;;;;;3.80;99.90;;;;;;4890209;29;19927;-82
2022/01/09 08:11:00;;;;;;;;;;;3.80;99.90;;;;;;4858330;29;19939;-83
2022/01/09 08:13:28;;;;;;;;;;;3.80;99.90;;;;;;4858526;29;19942;-82
2022/01/09 08:15:57;;;;;;;;;;;3.80;99.90;;;;;;4881900;29;19934;-79
2022/01/09 08:18:25;;;;;;;;;;;3.80;99.90;;;;;;4890823;29;19947;-80
2022/01/09 08:20:54;;;;;;;;;;;3.70;99.90;;;;;;4857191;29;19932;-80
2022/01/09 08:23:23;;;;;;;;;;;3.80;99.90;;;;;;4888705;29;19927;-80
2022/01/09 08:25:51;;;;;;;;;;;3.80;99.90;;;;;;4893518;29;19927;-81
2022/01/09 08:28:19;;;;;;;;;;;4.00;99.90;;;;;;4893899;29;19946;-80
2022/01/09 08:30:47;;;;;;;;;;;3.80;99.90;;;;;;4891939;29;19932;-82
2022/01/09 08:33:16;;;;;;;;;;;3.80;99.90;;;;;;4859976;29;19935;-80
2022/01/09 08:35:43;;;;;;;;;;;3.80;99.90;;;;;;4906479;29;19928;-82
2022/01/09 08:38:12;;;;;;;;;;;3.90;99.90;;;;;;4892419;29;19932;-81
2022/01/09 08:40:40;;;;;;;;;;;3.90;99.90;;;;;;4885263;29;19939;-82
2022/01/09 08:43:07;;;;;;;;;;;3.90;99.90;;;;;;4984499;23;19931;-81
2022/01/09 08:45:38;;;;;;;;;;;4.00;99.90;;;;;;4908318;29;19927;-80
2022/01/09 08:48:06;;;;;;;;;;;4.00;99.90;;;;;;4911659;29;19934;-79
2022/01/09 08:50:34;;;;;;;;;;;4.00;99.90;;;;;;4886139;29;19927;-81
2022/01/09 08:53:01;;;;;;;;;;;4.00;99.90;;;;;;4908089;29;19947;-80
2022/01/09 08:55:29;;;;;;;;;;;4.10;99.90;;;;;;4890739;29;19934;-83
2022/01/09 08:57:58;;;;;;;;;;;4.10;99.90;;;;;;4906311;29;19927;-81
2022/01/09 09:00:27;;;;;;;;;;;4.10;99.90;;;;;;4910256;29;19931;-83
2022/01/09 09:02:56;;;;;;;;;;;4.10;99.90;;;;;;4890647;29;20324;-80
2022/01/09 09:05:30;;;;;;;;;;;4.10;99.90;;;;;;4917314;29;19927;-82
2022/01/09 09:07:59;;;;;;;;;;;4.20;99.90;;;;;;4875496;29;19938;-83
2022/01/09 09:10:29;;;;;;;;;;;4.20;99.90;;;;;;4907207;29;19931;-81
2022/01/09 09:12:59;;;;;;;;;;;4.20;99.90;;;;;;4902541;29;19931;-81
2022/01/09 09:15:28;;;;;;;;;;;4.20;99.90;;;;;;4893388;29;20174;-79
2022/01/09 09:17:57;;;;;;;;;;;4.30;99.90;;;;;;4906375;29;19931;-83
2022/01/09 09:20:25;;;;;;;;;;;4.30;99.90;;;;;;4906561;29;19928;-81
2022/01/09 09:22:52;;;;;;;;;;;4.30;99.90;;;;;;4901643;29;19942;-84
2022/01/09 09:25:20;;;;;;;;;;;4.30;99.90;;;;;;4898198;29;19931;-81
2022/01/09 09:27:48;;;;;;;;;;;4.30;99.90;;;;;;4926801;29;19935;-82
2022/01/09 09:30:16;;;;;;;;;;;4.40;99.90;;;;;;4899564;29;19927;-79
2022/01/09 09:32:44;;;;;;;;;;;4.40;99.90;;;;;;4886651;29;19927;-80
2022/01/09 09:35:12;;;;;;;;;;;4.40;99.90;;;;;;4923528;29;19931;-81
2022/01/09 09:37:41;;;;;;;;;;;4.90;99.90;;;;;;4899981;29;19927;-80
2022/01/09 09:40:09;;;;;;;;;;;4.50;99.90;;;;;;4875005;29;19938;-79
2022/01/09 09:42:37;;;;;;;;;;;4.50;99.90;;;;;;4905304;29;19931;-81
2022/01/09 09:45:09;;;;;;;;;;;4.60;99.90;;;;;;4903728;29;19933;-79
2022/01/09 09:47:37;;;;;;;;;;;4.50;99.90;;;;;;4879498;29;19935;-80
2022/01/09 09:50:06;;;;;;;;;;;4.60;99.90;;;;;;4897422;29;19928;-83
2022/01/09 09:52:58;;;;;;;;;;;4.70;99.90;;;;;;4905188;29;19927;-79
2022/01/09 09:55:27;;;;;;;;;;;4.70;99.90;;;;;;4874410;29;19999;-79
2022/01/09 09:57:56;;;;;;;;;;;4.70;99.90;;;;;;4890036;29;19927;-80
2022/01/09 10:00:25;;;;;;;;;;;4.80;99.90;;;;;;4559019;29;10000661;-81
2022/01/09 10:02:54;;;;;;;;;;;4.80;99.90;;;;;;4870835;29;19935;-80
2022/01/09 10:05:23;;;;;;;;;;;4.80;99.90;;;;;;4905783;29;20362;-79
2022/01/09 10:07:54;;;;;;;;;;;4.90;99.90;;;;;;4894271;29;19935;-80
2022/01/09 10:10:29;;;;;;;;;;;4.90;99.90;;;;;;4863630;29;19928;-81
2022/01/09 10:13:09;;;;;;;;;;;4.90;99.90;;;;;;4901185;29;20317;-80
2022/01/09 10:16:02;;;;;;;;;;;5.00;99.90;;;;;;4880415;29;19938;-81
2022/01/09 10:18:56;;;;;;;;;;;5.00;99.90;;;;;;4897505;29;19938;-84
2022/01/09 10:21:26;;;;;;;;;;;5.00;99.90;;;;;;4893499;29;19936;-82
2022/01/09 10:24:07;;;;;;;;;;;5.10;99.90;;;;;;4882920;29;20014;-80
2022/01/09 10:26:40;;;;;;;;;;;5.10;99.90;;;;;;4871388;29;19935;-82
2022/01/09 10:29:08;;;;;;;;;;;4.90;99.90;;;;;;4885683;29;19943;-81
2022/01/09 10:31:46;;;;;;;;;;;5.20;99.90;;;;;;4886735;29;19943;-82
2022/01/09 10:34:18;;;;;;;;;;;5.20;99.90;;;;;;4871974;29;19927;-81
2022/01/09 10:36:51;;;;;;;;;;;5.30;99.90;;;;;;4883531;29;19927;-82
2022/01/09 10:39:30;;;;;;;;;;;5.30;99.90;;;;;;4887840;29;19935;-85
2022/01/09 10:42:01;;;;;;;;;;;5.40;99.90;;;;;;4899738;29;19927;-82
2022/01/09 10:44:32;;;;;;;;;;;5.40;99.90;;;;;;4884640;29;19946;-80
2022/01/09 10:47:02;;;;;;;;;;;5.50;99.90;;;;;;4871241;29;19958;-81
2022/01/09 10:49:35;;;;;;;;;;;5.50;99.90;;;;;;4885734;29;19942;-83
2022/01/09 10:52:25;;;;;;;;;;;5.50;99.90;;;;;;4886029;29;19931;-81
2022/01/09 10:54:55;;;;;;;;;;;5.60;99.90;;;;;;4887700;29;19932;-80
2022/01/09 10:57:24;;;;;;;;;;;5.70;99.90;;;;;;4870508;29;19935;-86
2022/01/09 10:59:52;;;;;;;;;;;5.70;99.90;;;;;;4870961;29;19951;-81
2022/01/09 11:02:21;;;;;;;;;;;5.70;99.90;;;;;;4870100;29;19931;-82
2022/01/09 11:04:55;;;;;;;;;;;6.00;99.90;;;;;;4880511;29;19955;-80
2022/01/09 11:07:24;;;;;;;;;;;5.90;99.90;;;;;;4885260;29;19943;-79
2022/01/09 11:10:21;;;;;;;;;;;5.90;99.90;;;;;;4884881;29;19935;-80
2022/01/09 11:13:15;;;;;;;;;;;6.00;99.90;;;;;;4884008;29;19927;-80
2022/01/09 11:16:32;;;;;;;;;;;6.00;99.90;;;;;;4902231;29;19938;-81
2022/01/09 11:18:32;;;;;;;;;;;6.10;99.90;;;;;;4903546;29;19935;-81
2022/01/09 11:21:01;;;;;;;;;;;6.10;99.90;;;;;;4906792;29;19946;-83
2022/01/09 11:23:37;;;;;;;;;;;6.10;99.90;;;;;;4892309;29;20145;-80
2022/01/09 11:26:07;;;;;;;;;;;6.20;99.90;;;;;;4890539;29;20960;-81
2022/01/09 11:28:37;;;;;;;;;;;6.20;99.90;;;;;;4909001;29;20112;-80
2022/01/09 11:31:24;;;;;;;;;;;6.40;99.90;;;;;;4890108;29;20285;-81
2022/01/09 11:33:51;;;;;;;;;;;6.30;99.90;;;;;;4901437;29;19927;-81
2022/01/09 11:36:33;;;;;;;;;;;6.30;99.90;;;;;;4889064;29;20457;-80
2022/01/09 11:39:18;;;;;;;;;;;6.30;99.90;;;;;;4873680;29;20128;-82
2022/01/09 11:42:04;;;;;;;;;;;6.40;99.90;;;;;;4904411;29;19931;-86
2022/01/09 11:44:47;;;;;;;;;;;6.50;99.90;;;;;;4871526;29;19931;-79
2022/01/09 11:47:17;;;;;;;;;;;6.50;99.90;;;;;;4860140;29;19931;-80
2022/01/09 11:49:56;;;;;;;;;;;6.70;99.90;;;;;;4873484;29;19932;-82
2022/01/09 11:52:28;;;;;;;;;;;6.70;99.90;;;;;;4906004;29;19939;-81
2022/01/09 11:54:58;;;;;;;;;;;6.60;99.90;;;;;;4900913;29;19931;-80
2022/01/09 11:57:40;;;;;;;;;;;6.60;99.90;;;;;;4884605;29;19931;-82
2022/01/09 12:00:29;;;;;;;;;;;6.60;99.90;;;;;;4887451;29;19935;-80
2022/01/09 12:02:57;;;;;;;;;;;6.70;99.90;;;;;;4905131;29;21114;-81
2022/01/09 12:05:25;;;;;;;;;;;6.90;99.90;;;;;;4870749;29;20378;-81
2022/01/09 12:07:54;;;;;;;;;;;5.10;99.90;;;;;;4550954;29;10000284;-82
2022/01/09 12:10:28;;;;;;;;;;;6.80;99.90;;;;;;4888942;29;19932;-81
2022/01/09 12:12:57;;;;;;;;;;;6.90;99.90;;;;;;4888895;29;19943;-81
2022/01/09 12:15:41;;;;;;;;;;;7.00;99.90;;;;;;4894755;29;19931;-80
2022/01/09 12:18:29;;;;;;;;;;;7.10;99.90;;;;;;4875924;29;19928;-82
2022/01/09 12:20:57;;;;;;;;;;;7.10;99.90;;;;;;4889587;29;20336;-81
2022/01/09 12:23:27;;;;;;;;;;;7.20;99.90;;;;;;4872839;29;19935;-81
2022/01/09 12:25:55;;;;;;;;;;;7.20;99.90;;;;;;4903856;29;19936;-80
2022/01/09 12:28:24;;;;;;;;;;;7.30;99.90;;;;;;4857774;29;19931;-82
2022/01/09 12:30:59;;;;;;;;;;;7.50;99.90;;;;;;4902161;29;19935;-80
2022/01/09 12:33:28;;;;;;;;;;;7.30;99.90;;;;;;4901466;29;19938;-83
2022/01/09 12:35:59;;;;;;;;;;;7.40;99.90;;;;;;4887265;29;20101;-80
2022/01/09 12:38:28;;;;;;;;;;;7.40;99.90;;;;;;4887616;29;19935;-82
2022/01/09 12:40:56;;;;;;;;;;;7.50;99.90;;;;;;4872383;29;19936;-80
2022/01/09 12:43:25;;;;;;;;;;;7.50;99.90;;;;;;4870253;29;19996;-82
2022/01/09 12:45:53;;;;;;;;;;;7.50;99.90;;;;;;4902978;29;19931;-83
2022/01/09 12:48:25;;;;;;;;;;;7.60;99.90;;;;;;4889309;29;19946;-81
2022/01/09 12:50:56;;;;;;;;;;;7.70;99.90;;;;;;4878634;29;19950;-82
2022/01/09 12:53:29;;;;;;;;;;;7.70;99.90;;;;;;4872363;29;19928;-84
2022/01/09 12:56:03;;;;;;;;;;;7.90;99.90;;;;;;4904222;29;19928;-82
2022/01/09 12:58:34;;;;;;;;;;;7.80;99.90;;;;;;4892956;29;19963;-83
2022/01/09 13:01:03;;;;;;;;;;;7.40;99.90;;;;;;4876039;29;19950;-81
2022/01/09 13:03:31;;;;;;;;;;;7.80;99.90;;;;;;4886162;29;19958;-82
2022/01/09 13:06:08;;;;;;;;;;;7.90;99.90;;;;;;4868155;29;19935;-81
2022/01/09 13:08:40;;;;;;;;;;;7.90;99.90;;;;;;4855599;29;19938;-80
2022/01/09 13:11:17;;;;;;;;;;;7.90;99.90;;;;;;4905299;29;19955;-81
2022/01/09 13:13:48;;;;;;;;;;;8.00;99.90;;;;;;4899809;29;20313;-80
2022/01/09 13:16:16;;;;;;;;;;;8.10;99.90;;;;;;4885154;29;19928;-80
2022/01/09 13:18:49;;;;;;;;;;;8.20;99.90;;;;;;4871879;29;19931;-82
2022/01/09 13:21:43;;;;;;;;;;;8.20;99.90;;;;;;4902968;29;19938;-81
2022/01/09 13:24:27;;;;;;;;;;;8.30;99.90;;;;;;4869513;29;19932;-80
2022/01/09 13:27:02;;;;;;;;;;;8.40;99.90;;;;;;4902222;29;19946;-80
2022/01/09 13:29:31;;;;;;;;;;;8.40;99.90;;;;;;4901599;29;19932;-79
2022/01/09 13:31:59;;;;;;;;;;;8.50;99.90;;;;;;4902902;29;19937;-81
2022/01/09 13:34:33;;;;;;;;;;;8.50;99.90;;;;;;4902811;29;19935;-83
2022/01/09 13:37:04;;;;;;;;;;;8.50;99.90;;;;;;4868584;29;19946;-82
2022/01/09 13:39:59;;;;;;;;;;;8.40;99.90;;;;;;4902705;29;19931;-79
2022/01/09 13:42:35;;;;;;;;;;;8.40;99.90;;;;;;4882550;29;19938;-80
2022/01/09 13:45:07;;;;;;;;;;;8.30;99.90;;;;;;4875031;29;19961;-80
2022/01/09 13:47:46;;;;;;;;;;;8.30;99.90;;;;;;4898436;29;19950;-80
2022/01/09 13:50:22;;;;;;;;;;;8.30;99.90;;;;;;4878213;29;19943;-81
2022/01/09 13:52:52;;;;;;;;;;;8.30;99.90;;;;;;4880486;29;19935;-78
2022/01/09 13:55:26;;;;;;;;;;;8.30;99.90;;;;;;4896337;29;19936;-79
2022/01/09 13:57:56;;;;;;;;;;;8.30;99.90;;;;;;4864394;29;20308;-78
2022/01/09 14:00:25;;;;;;;;;;;9.60;99.90;;;;;;4880935;29;19942;-78
2022/01/09 14:02:54;;;;;;;;;;;8.40;99.90;;;;;;4896706;29;19931;-78
2022/01/09 14:05:40;;;;;;;;;;;8.30;99.90;;;;;;4884925;29;19938;-79
2022/01/09 14:08:10;;;;;;;;;;;8.60;99.90;;;;;;4885035;29;19943;-79
2022/01/09 14:10:46;;;;;;;;;;;8.40;99.90;;;;;;4898374;29;19942;-79
2022/01/09 14:13:15;;;;;;;;;;;8.40;99.90;;;;;;4867685;29;19947;-80
2022/01/09 14:15:44;;;;;;;;;;;8.40;99.90;;;;;;4896229;29;19938;-78
2022/01/09 14:18:26;;;;;;;;;;;8.40;99.90;;;;;;4898138;29;19934;-78
2022/01/09 14:21:01;;;;;;;;;;;8.30;99.90;;;;;;4892398;29;19938;-79
2022/01/09 14:23:31;;;;;;;;;;;8.30;99.90;;;;;;4894827;29;19935;-80
2022/01/09 14:26:17;;;;;;;;;;;8.30;99.90;;;;;;4894006;29;19927;-78
2022/01/09 14:28:45;;;;;;;;;;;8.40;99.90;;;;;;4892400;29;19958;-79
2022/01/09 14:31:15;;;;;;;;;;;8.50;99.90;;;;;;4899995;29;20373;-79
2022/01/09 14:33:45;;;;;;;;;;;8.30;99.90;;;;;;4897965;29;20154;-78
2022/01/09 14:36:15;;;;;;;;;;;8.30;99.90;;;;;;4866898;29;19942;-80
2022/01/09 14:38:50;;;;;;;;;;;8.30;99.90;;;;;;4902154;29;20035;-78
2022/01/09 14:41:22;;;;;;;;;;;8.30;99.90;;;;;;4902228;29;19935;-78
2022/01/09 14:43:49;;;;;;;;;;;8.30;99.90;;;;;;4897285;29;19931;-80
2022/01/09 14:46:24;;;;;;;;;;;8.30;99.90;;;;;;4867609;29;20255;-79
2022/01/09 14:48:57;;;;;;;;;;;8.30;99.90;;;;;;4898923;29;19931;-79
2022/01/09 14:51:24;;;;;;;;;;;8.20;99.90;;;;;;4896079;29;19947;-79
2022/01/09 14:53:55;;;;;;;;;;;8.20;99.90;;;;;;4887468;29;20364;-79